createdAt,value
2023-04-03T00:00:46.532Z,100.00
2023-04-03T00:01:48.611Z,100.00
2023-04-03T00:02:50.754Z,100.00
2023-04-03T00:03:53.022Z,100.00
2023-04-03T00:04:55.003Z,100.00
2023-04-03T00:05:57.007Z,100.00
2023-04-03T00:06:59.262Z,100.00
2023-04-03T00:08:01.371Z,100.00
2023-04-03T00:09:03.454Z,100.00
2023-04-03T00:10:07.900Z,100.00
2023-04-03T00:11:10.893Z,100.00
2023-04-03T00:12:12.849Z,100.00
2023-04-03T00:13:15.248Z,100.00
2023-04-03T00:14:19.791Z,100.00
2023-04-03T00:15:22.694Z,100.00
2023-04-03T00:16:25.545Z,100.00
2023-04-03T00:17:28.544Z,100.00
2023-04-03T00:18:30.569Z,100.00
2023-04-03T00:19:33.044Z,100.00
2023-04-03T00:20:35.388Z,100.00
2023-04-03T00:21:37.803Z,100.00
2023-04-03T00:22:39.680Z,100.00
2023-04-03T00:23:42.300Z,100.00
2023-04-03T00:24:44.301Z,100.00
2023-04-03T00:25:46.411Z,100.00
2023-04-03T00:26:48.933Z,100.00
2023-04-03T00:27:51.175Z,100.00
2023-04-03T00:28:53.134Z,100.00
2023-04-03T00:29:54.978Z,100.00
2023-04-03T00:30:57.432Z,100.00
2023-04-03T00:31:59.469Z,100.00
2023-04-03T00:33:01.504Z,100.00
2023-04-03T00:34:04.174Z,100.00
2023-04-03T00:35:07.455Z,100.00
2023-04-03T00:36:11.281Z,100.00
2023-04-03T00:37:13.769Z,100.00
2023-04-03T00:38:17.107Z,100.00
2023-04-03T00:39:19.083Z,100.00
2023-04-03T00:40:25.403Z,100.00
2023-04-03T00:41:27.495Z,100.00
2023-04-03T00:42:29.511Z,100.00
2023-04-03T00:43:33.054Z,100.00
2023-04-03T00:44:38.831Z,100.00
2023-04-03T00:45:43.619Z,100.00
2023-04-03T00:46:45.783Z,100.00
2023-04-03T00:47:48.255Z,100.00
2023-04-03T00:48:50.602Z,100.00
2023-04-03T00:49:54.153Z,100.00
2023-04-03T00:50:57.653Z,100.00
2023-04-03T00:52:00.221Z,100.00
2023-04-03T00:53:04.043Z,100.00
2023-04-03T00:54:08.709Z,100.00
2023-04-03T00:55:11.796Z,100.00
2023-04-03T00:56:17.973Z,100.00
2023-04-03T00:57:19.918Z,100.00
2023-04-03T00:58:32.520Z,100.00
2023-04-03T00:59:38.357Z,100.00
2023-04-03T01:00:44.124Z,100.00
2023-04-03T01:01:46.634Z,100.00
2023-04-03T01:02:51.409Z,100.00
2023-04-03T01:03:55.301Z,100.00
2023-04-03T01:04:57.363Z,100.00
2023-04-03T01:05:59.911Z,100.00
2023-04-03T01:07:05.104Z,100.00
2023-04-03T01:08:07.891Z,100.00
2023-04-03T01:09:10.172Z,100.00
2023-04-03T01:10:15.318Z,100.00
2023-04-03T01:11:17.847Z,100.00
2023-04-03T01:12:29.270Z,100.00
2023-04-03T01:13:33.113Z,100.00
2023-04-03T01:14:35.113Z,100.00
2023-04-03T01:15:57.148Z,100.00
2023-04-03T01:17:01.445Z,100.00
2023-04-03T01:18:03.376Z,100.00
2023-04-03T01:19:13.183Z,100.00
2023-04-03T01:20:36.370Z,100.00
2023-04-03T01:23:19.401Z,100.00
2023-04-03T01:24:27.946Z,100.00
2023-04-03T01:25:30.849Z,100.00
2023-04-03T01:26:34.675Z,100.00
2023-04-03T01:27:36.650Z,100.00
2023-04-03T01:28:39.044Z,100.00
2023-04-03T01:29:42.849Z,100.00
2023-04-03T01:31:03.119Z,100.00
2023-04-03T01:32:06.140Z,100.00
2023-04-03T01:33:08.285Z,100.00
2023-04-03T01:34:10.210Z,100.00
2023-04-03T01:35:13.313Z,100.00
2023-04-03T01:36:27.643Z,100.00
2023-04-03T01:37:29.669Z,100.00
2023-04-03T01:38:32.368Z,100.00
2023-04-03T01:39:35.213Z,100.00
2023-04-03T01:40:37.629Z,100.00
2023-04-03T01:41:41.706Z,100.00
2023-04-03T01:42:44.272Z,100.00
2023-04-03T01:43:46.240Z,100.00
2023-04-03T01:44:48.185Z,100.00
2023-04-03T01:45:50.089Z,100.00
2023-04-03T01:46:52.347Z,100.00
2023-04-03T01:47:56.148Z,100.00
2023-04-03T01:48:58.248Z,100.00
2023-04-03T01:50:01.615Z,100.00
2023-04-03T01:51:04.299Z,100.00
2023-04-03T01:52:06.194Z,100.00
2023-04-03T01:53:08.081Z,100.00
2023-04-03T01:54:10.056Z,100.00
2023-04-03T01:55:12.024Z,100.00
2023-04-03T01:56:14.823Z,100.00
2023-04-03T01:57:18.592Z,100.00
2023-04-03T01:58:20.872Z,100.00
2023-04-03T01:59:22.805Z,100.00
2023-04-03T02:00:24.822Z,100.00
2023-04-03T02:01:26.920Z,100.00
2023-04-03T02:02:28.956Z,100.00
2023-04-03T02:03:32.046Z,100.00
2023-04-03T02:04:34.294Z,100.00
2023-04-03T02:05:36.206Z,100.00
2023-04-03T02:06:38.312Z,100.00
2023-04-03T02:07:40.280Z,100.00
2023-04-03T02:08:42.264Z,100.00
2023-04-03T02:09:44.123Z,100.00
2023-04-03T02:10:50.451Z,100.00
2023-04-03T02:11:54.069Z,100.00
2023-04-03T02:12:55.965Z,100.00
2023-04-03T02:13:57.846Z,100.00
2023-04-03T02:14:59.915Z,100.00
2023-04-03T02:16:07.130Z,100.00
2023-04-03T02:17:09.930Z,100.00
2023-04-03T02:18:12.798Z,100.00
2023-04-03T02:19:15.216Z,100.00
2023-04-03T02:20:17.399Z,100.00
2023-04-03T02:21:19.743Z,100.00
2023-04-03T02:22:21.642Z,100.00
2023-04-03T02:23:23.542Z,100.00
2023-04-03T02:24:25.630Z,100.00
2023-04-03T02:25:27.756Z,100.00
2023-04-03T02:26:29.984Z,100.00
2023-04-03T02:27:31.922Z,100.00
2023-04-03T02:28:34.596Z,100.00
2023-04-03T02:29:36.482Z,100.00
2023-04-03T02:30:38.831Z,100.00
2023-04-03T02:31:40.941Z,100.00
2023-04-03T02:32:43.721Z,100.00
2023-04-03T02:33:46.443Z,100.00
2023-04-03T02:34:48.331Z,100.00
2023-04-03T02:35:55.782Z,100.00
2023-04-03T02:36:58.086Z,100.00
2023-04-03T02:38:00.004Z,100.00
2023-04-03T02:39:03.712Z,100.00
2023-04-03T02:40:07.341Z,100.00
2023-04-03T02:41:11.377Z,100.00
2023-04-03T02:42:13.739Z,100.00
2023-04-03T02:43:16.229Z,100.00
2023-04-03T02:44:18.672Z,100.00
2023-04-03T02:45:20.677Z,100.00
2023-04-03T02:46:22.680Z,100.00
2023-04-03T02:47:24.680Z,100.00
2023-04-03T02:48:28.021Z,100.00
2023-04-03T02:49:29.928Z,100.00
2023-04-03T02:50:32.201Z,100.00
2023-04-03T02:51:34.170Z,100.00
2023-04-03T02:52:36.264Z,100.00
2023-04-03T02:53:38.324Z,100.00
2023-04-03T02:54:41.025Z,100.00
2023-04-03T02:55:42.895Z,100.00
2023-04-03T02:56:44.857Z,100.00
2023-04-03T02:57:46.751Z,100.00
2023-04-03T02:58:48.716Z,100.00
2023-04-03T02:59:50.708Z,100.00
2023-04-03T03:00:53.902Z,100.00
2023-04-03T03:01:56.181Z,100.00
2023-04-03T03:02:58.277Z,100.00
2023-04-03T03:04:00.735Z,100.00
2023-04-03T03:05:04.240Z,100.00
2023-04-03T03:06:13.343Z,100.00
2023-04-03T03:07:15.342Z,100.00
2023-04-03T03:08:17.507Z,100.00
2023-04-03T03:09:19.488Z,100.00
2023-04-03T03:10:22.063Z,100.00
2023-04-03T03:11:23.960Z,100.00
2023-04-03T03:12:26.922Z,100.00
2023-04-03T03:13:31.381Z,100.00
2023-04-03T03:14:33.409Z,100.00
2023-04-03T03:15:35.291Z,100.00
2023-04-03T03:16:37.488Z,100.00
2023-04-03T03:17:39.762Z,100.00
2023-04-03T03:18:41.855Z,100.00
2023-04-03T03:19:45.057Z,100.00
2023-04-03T03:20:47.132Z,100.00
2023-04-03T03:21:49.138Z,100.00
2023-04-03T03:22:51.121Z,100.00
2023-04-03T03:23:54.318Z,100.00
2023-04-03T03:24:56.358Z,100.00
2023-04-03T03:26:00.287Z,100.00
2023-04-03T03:27:02.220Z,100.00
2023-04-03T03:28:04.467Z,100.00
2023-04-03T03:29:06.522Z,100.00
2023-04-03T03:30:09.828Z,100.00
2023-04-03T03:31:11.740Z,100.00
2023-04-03T03:32:14.412Z,100.00
2023-04-03T03:33:17.185Z,100.00
2023-04-03T03:34:20.117Z,100.00
2023-04-03T03:35:23.017Z,100.00
2023-04-03T03:36:25.066Z,100.00
2023-04-03T03:37:26.990Z,100.00
2023-04-03T03:38:28.855Z,100.00
2023-04-03T03:39:33.197Z,100.00
2023-04-03T03:40:35.203Z,100.00
2023-04-03T03:41:37.068Z,100.00
2023-04-03T03:42:39.999Z,100.00
2023-04-03T03:43:42.231Z,100.00
2023-04-03T03:44:44.100Z,100.00
2023-04-03T03:45:51.874Z,100.00
2023-04-03T03:46:54.574Z,100.00
2023-04-03T03:47:56.977Z,100.00
2023-04-03T03:48:59.878Z,100.00
2023-04-03T03:50:02.985Z,100.00
2023-04-03T03:51:05.563Z,100.00
2023-04-03T03:52:07.495Z,100.00
2023-04-03T03:53:09.365Z,100.00
2023-04-03T03:54:13.336Z,100.00
2023-04-03T03:55:15.551Z,100.00
2023-04-03T03:56:17.716Z,100.00
2023-04-03T03:57:20.248Z,100.00
2023-04-03T03:58:22.336Z,100.00
2023-04-03T03:59:24.303Z,100.00
2023-04-03T04:00:26.394Z,100.00
2023-04-03T04:01:28.952Z,100.00
2023-04-03T04:02:31.581Z,100.00
2023-04-03T04:03:34.788Z,100.00
2023-04-03T04:04:37.862Z,100.00
2023-04-03T04:05:40.112Z,100.00
2023-04-03T04:06:42.357Z,100.00
2023-04-03T04:07:44.207Z,100.00
2023-04-03T04:08:46.079Z,100.00
2023-04-03T04:09:48.826Z,100.00
2023-04-03T04:10:50.968Z,100.00
2023-04-03T04:11:54.353Z,100.00
2023-04-03T04:12:58.445Z,100.00
2023-04-03T04:14:00.136Z,100.00
2023-04-03T04:15:03.485Z,100.00
2023-04-03T04:16:06.661Z,100.00
2023-04-03T04:17:08.659Z,100.00
2023-04-03T04:18:10.641Z,100.00
2023-04-03T04:19:13.846Z,100.00
2023-04-03T04:20:16.054Z,100.00
2023-04-03T04:21:19.006Z,100.00
2023-04-03T04:22:20.895Z,100.00
2023-04-03T04:23:23.991Z,100.00
2023-04-03T04:24:25.853Z,100.00
2023-04-03T04:25:27.752Z,100.00
2023-04-03T04:26:29.719Z,100.00
2023-04-03T04:27:31.582Z,100.00
2023-04-03T04:28:33.436Z,100.00
2023-04-03T04:29:35.310Z,100.00
2023-04-03T04:30:37.330Z,100.00
2023-04-03T04:31:39.577Z,100.00
2023-04-03T04:32:41.654Z,100.00
2023-04-03T04:33:43.811Z,100.00
2023-04-03T04:34:45.806Z,100.00
2023-04-03T04:35:48.691Z,100.00
2023-04-03T04:36:51.076Z,100.00
2023-04-03T04:37:53.162Z,100.00
2023-04-03T04:38:55.523Z,100.00
2023-04-03T04:39:57.388Z,100.00
2023-04-03T04:40:59.381Z,100.00
2023-04-03T04:42:01.245Z,100.00
2023-04-03T04:43:03.138Z,100.00
2023-04-03T04:44:05.109Z,100.00
2023-04-03T04:45:07.678Z,100.00
2023-04-03T04:46:11.406Z,100.00
2023-04-03T04:47:14.202Z,100.00
2023-04-03T04:48:16.085Z,100.00
2023-04-03T04:49:18.055Z,100.00
2023-04-03T04:50:21.277Z,100.00
2023-04-03T04:51:23.238Z,100.00
2023-04-03T04:52:25.297Z,100.00
2023-04-03T04:53:27.578Z,100.00
2023-04-03T04:54:29.744Z,100.00
2023-04-03T04:55:31.755Z,100.00
2023-04-03T04:56:33.819Z,100.00
2023-04-03T04:57:36.619Z,100.00
2023-04-03T04:58:39.085Z,100.00
2023-04-03T04:59:41.075Z,100.00
2023-04-03T05:00:44.094Z,100.00
2023-04-03T05:01:46.151Z,100.00
2023-04-03T05:02:48.322Z,100.00
2023-04-03T05:03:51.299Z,100.00
2023-04-03T05:04:53.303Z,100.00
2023-04-03T05:05:55.381Z,100.00
2023-04-03T05:06:57.361Z,100.00
2023-04-03T05:08:00.249Z,100.00
2023-04-03T05:09:02.265Z,100.00
2023-04-03T05:10:05.961Z,100.00
2023-04-03T05:11:07.949Z,100.00
2023-04-03T05:12:10.309Z,100.00
2023-04-03T05:13:13.921Z,100.00
2023-04-03T05:14:16.267Z,100.00
2023-04-03T05:15:18.171Z,100.00
2023-04-03T05:16:20.310Z,100.00
2023-04-03T05:17:23.501Z,100.00
2023-04-03T05:18:25.700Z,100.00
2023-04-03T05:19:27.682Z,100.00
2023-04-03T05:20:29.804Z,100.00
2023-04-03T05:21:31.877Z,100.00
2023-04-03T05:22:33.745Z,100.00
2023-04-03T05:23:35.661Z,100.00
2023-04-03T05:24:38.407Z,100.00
2023-04-03T05:25:40.724Z,100.00
2023-04-03T05:26:43.899Z,100.00
2023-04-03T05:27:45.883Z,100.00
2023-04-03T05:28:47.749Z,100.00
2023-04-03T05:29:50.175Z,100.00
2023-04-03T05:30:57.834Z,100.00
2023-04-03T05:31:59.991Z,100.00
2023-04-03T05:33:02.986Z,100.00
2023-04-03T05:34:05.861Z,100.00
2023-04-03T05:35:09.300Z,100.00
2023-04-03T05:36:12.377Z,100.00
2023-04-03T05:37:14.948Z,100.00
2023-04-03T05:38:17.362Z,100.00
2023-04-03T05:39:19.539Z,100.00
2023-04-03T05:40:21.560Z,100.00
2023-04-03T05:41:23.725Z,100.00
2023-04-03T05:42:25.850Z,100.00
2023-04-03T05:43:27.724Z,100.00
2023-04-03T05:44:29.604Z,100.00
2023-04-03T05:45:31.496Z,100.00
2023-04-03T05:46:33.550Z,100.00
2023-04-03T05:47:35.493Z,100.00
2023-04-03T05:48:37.698Z,100.00
2023-04-03T05:49:39.961Z,100.00
2023-04-03T05:50:41.942Z,100.00
2023-04-03T05:51:44.022Z,100.00
2023-04-03T05:52:49.009Z,100.00
2023-04-03T05:53:54.705Z,100.00
2023-04-03T05:54:57.576Z,100.00
2023-04-03T05:55:59.532Z,100.00
2023-04-03T05:57:01.536Z,100.00
2023-04-03T05:58:03.514Z,100.00
2023-04-03T05:59:05.439Z,100.00
2023-04-03T06:00:11.067Z,100.00
2023-04-03T06:01:13.296Z,100.00
2023-04-03T06:02:18.459Z,100.00
2023-04-03T06:03:21.060Z,100.00
2023-04-03T06:04:23.294Z,100.00
2023-04-03T06:05:25.618Z,100.00
2023-04-03T06:06:46.315Z,100.00
2023-04-03T06:07:49.103Z,100.00
2023-04-03T06:08:51.595Z,100.00
2023-04-03T06:09:54.142Z,100.00
2023-04-03T06:10:56.282Z,100.00
2023-04-03T06:11:58.464Z,100.00
2023-04-03T06:13:00.542Z,100.00
2023-04-03T06:14:02.503Z,100.00
2023-04-03T06:15:06.044Z,100.00
2023-04-03T06:16:12.584Z,100.00
2023-04-03T06:17:16.253Z,100.00
2023-04-03T06:18:18.311Z,100.00
2023-04-03T06:19:21.195Z,100.00
2023-04-03T06:20:23.201Z,100.00
2023-04-03T06:21:25.058Z,100.00
2023-04-03T06:22:26.938Z,100.00
2023-04-03T06:23:29.293Z,100.00
2023-04-03T06:24:32.304Z,100.00
2023-04-03T06:25:35.277Z,100.00
2023-04-03T06:26:37.304Z,100.00
2023-04-03T06:27:39.566Z,100.00
2023-04-03T06:28:41.632Z,100.00
2023-04-03T06:29:43.678Z,100.00
2023-04-03T06:30:45.929Z,100.00
2023-04-03T06:31:49.401Z,100.00
2023-04-03T06:32:51.427Z,100.00
2023-04-03T06:33:56.350Z,100.00
2023-04-03T06:34:58.512Z,100.00
2023-04-03T06:36:02.651Z,100.00
2023-04-03T06:37:04.927Z,100.00
2023-04-03T06:38:07.288Z,100.00
2023-04-03T06:39:12.949Z,100.00
2023-04-03T06:41:31.570Z,100.00
2023-04-03T06:42:33.529Z,100.00
2023-04-03T06:43:36.216Z,100.00
2023-04-03T06:44:38.077Z,100.00
2023-04-03T06:45:40.151Z,100.00
2023-04-03T06:46:43.776Z,100.00
2023-04-03T06:47:45.778Z,100.00
2023-04-03T06:48:49.666Z,100.00
2023-04-03T06:49:51.690Z,100.00
2023-04-03T06:50:54.097Z,100.00
2023-04-03T06:51:55.961Z,100.00
2023-04-03T06:52:57.866Z,100.00
2023-04-03T06:54:01.280Z,100.00
2023-04-03T06:55:04.266Z,100.00
2023-04-03T06:56:06.661Z,100.00
2023-04-03T06:57:09.639Z,100.00
2023-04-03T06:58:11.647Z,100.00
2023-04-03T06:59:13.727Z,100.00
2023-04-03T07:00:16.877Z,100.00
2023-04-03T07:01:19.106Z,100.00
2023-04-03T07:02:21.182Z,100.00
2023-04-03T07:03:23.265Z,100.00
2023-04-03T07:04:25.419Z,100.00
2023-04-03T07:05:27.366Z,100.00
2023-04-03T07:06:29.486Z,100.00
2023-04-03T07:07:33.330Z,100.00
2023-04-03T07:08:35.518Z,100.00
2023-04-03T07:09:38.629Z,100.00
2023-04-03T07:10:40.671Z,100.00
2023-04-03T07:11:42.526Z,100.00
2023-04-03T07:12:44.405Z,100.00
2023-04-03T07:13:46.522Z,100.00
2023-04-03T07:14:48.562Z,100.00
2023-04-03T07:15:50.641Z,100.00
2023-04-03T07:16:52.670Z,100.00
2023-04-03T07:17:54.647Z,100.00
2023-04-03T07:18:58.811Z,100.00
2023-04-03T07:20:00.822Z,100.00
2023-04-03T07:21:03.847Z,100.00
2023-04-03T07:22:06.836Z,100.00
2023-04-03T07:23:09.158Z,100.00
2023-04-03T07:24:15.071Z,100.00
2023-04-03T07:25:15.523Z,100.00
2023-04-03T07:26:17.769Z,100.00
2023-04-03T07:27:19.626Z,100.00
2023-04-03T07:28:22.494Z,100.00
2023-04-03T07:29:25.950Z,100.00
2023-04-03T07:30:28.145Z,100.00
2023-04-03T07:31:31.562Z,100.00
2023-04-03T07:32:33.756Z,100.00
2023-04-03T07:33:37.153Z,100.00
2023-04-03T07:34:39.318Z,100.00
2023-04-03T07:35:42.535Z,100.00
2023-04-03T07:36:44.641Z,100.00
2023-04-03T07:37:46.708Z,100.00
2023-04-03T07:38:49.480Z,100.00
2023-04-03T07:39:51.976Z,100.00
2023-04-03T07:40:56.092Z,100.00
2023-04-03T07:41:58.331Z,100.00
2023-04-03T07:43:00.275Z,100.00
2023-04-03T07:44:02.329Z,100.00
2023-04-03T07:45:05.897Z,100.00
2023-04-03T07:46:08.454Z,100.00
2023-04-03T07:47:10.494Z,100.00
2023-04-03T07:48:14.247Z,100.00
2023-04-03T07:49:18.454Z,100.00
2023-04-03T07:50:21.676Z,100.00
2023-04-03T07:51:23.575Z,100.00
2023-04-03T07:52:25.434Z,100.00
2023-04-03T07:53:27.732Z,100.00
2023-04-03T07:54:29.865Z,100.00
2023-04-03T07:55:34.457Z,100.00
2023-04-03T07:56:36.848Z,100.00
2023-04-03T07:57:38.977Z,100.00
2023-04-03T07:58:40.850Z,100.00
2023-04-03T07:59:42.815Z,100.00
2023-04-03T08:00:46.098Z,100.00
2023-04-03T08:01:48.122Z,100.00
2023-04-03T08:02:50.240Z,100.00
2023-04-03T08:03:52.459Z,100.00
2023-04-03T08:04:54.689Z,100.00
2023-04-03T08:06:00.668Z,100.00
2023-04-03T08:07:03.614Z,100.00
2023-04-03T08:08:07.368Z,100.00
2023-04-03T08:09:09.467Z,100.00
2023-04-03T08:10:11.753Z,100.00
2023-04-03T08:11:13.621Z,100.00
2023-04-03T08:12:15.783Z,100.00
2023-04-03T08:13:18.488Z,100.00
2023-04-03T08:14:21.143Z,100.00
2023-04-03T08:15:23.479Z,100.00
2023-04-03T08:16:26.108Z,100.00
2023-04-03T08:17:28.052Z,100.00
2023-04-03T08:18:30.052Z,100.00
2023-04-03T08:19:32.026Z,100.00
2023-04-03T08:20:34.106Z,100.00
2023-04-03T08:21:36.012Z,100.00
2023-04-03T08:22:37.883Z,100.00
2023-04-03T08:23:41.576Z,100.00
2023-04-03T08:24:56.163Z,100.00
2023-04-03T08:25:47.532Z,100.00
2023-04-03T08:26:49.657Z,100.00
2023-04-03T08:27:52.202Z,100.00
2023-04-03T08:28:54.079Z,100.00
2023-04-03T08:29:56.954Z,100.00
2023-04-03T08:31:09.212Z,100.00
2023-04-03T08:32:11.211Z,100.00
2023-04-03T08:33:13.826Z,100.00
2023-04-03T08:34:17.568Z,100.00
2023-04-03T08:35:19.726Z,100.00
2023-04-03T08:36:24.909Z,100.00
2023-04-03T08:37:27.135Z,100.00
2023-04-03T08:38:29.014Z,100.00
2023-04-03T08:39:31.013Z,100.00
2023-04-03T08:40:33.193Z,100.00
2023-04-03T08:41:38.482Z,100.00
2023-04-03T08:42:44.188Z,100.00
2023-04-03T08:44:07.807Z,100.00
2023-04-03T08:46:35.849Z,100.00
2023-04-03T08:47:54.514Z,100.00
2023-04-03T08:48:59.075Z,100.00
2023-04-03T08:50:04.620Z,100.00
2023-04-03T08:51:13.068Z,100.00
2023-04-03T08:52:30.903Z,100.00
2023-04-03T08:53:36.573Z,100.00
2023-04-03T08:54:59.009Z,100.00
2023-04-03T08:56:04.814Z,100.00
2023-04-03T08:57:07.030Z,100.00
2023-04-03T08:58:24.719Z,100.00
2023-04-03T08:59:33.152Z,100.00
2023-04-03T09:00:48.037Z,100.00
2023-04-03T09:01:50.528Z,100.00
2023-04-03T09:02:55.729Z,100.00
2023-04-03T09:03:58.945Z,100.00
2023-04-03T09:05:04.620Z,100.00
2023-04-03T09:06:13.316Z,100.00
2023-04-03T09:07:19.502Z,100.00
2023-04-03T09:08:30.977Z,100.00
2023-04-03T09:09:34.746Z,100.00
2023-04-03T09:10:39.843Z,100.00
2023-04-03T09:11:45.873Z,100.00
2023-04-03T09:14:11.822Z,100.00
2023-04-03T09:15:20.079Z,100.00
2023-04-03T09:16:40.094Z,100.00
2023-04-03T09:17:52.194Z,100.00
2023-04-03T09:19:01.654Z,100.00
2023-04-03T09:20:18.157Z,100.00
2023-04-03T09:21:24.100Z,100.00
2023-04-03T09:22:30.185Z,100.00
2023-04-03T09:23:47.918Z,100.00
2023-04-03T09:25:01.215Z,100.00
2023-04-03T09:26:07.060Z,100.00
2023-04-03T09:27:12.044Z,100.00
2023-04-03T09:28:14.346Z,100.00
2023-04-03T09:29:21.504Z,100.00
2023-04-03T09:30:26.591Z,100.00
2023-04-03T09:31:32.379Z,100.00
2023-04-03T09:32:36.623Z,100.00
2023-04-03T09:33:40.478Z,100.00
2023-04-03T09:34:44.375Z,99.59
2023-04-03T09:35:49.051Z,99.53
2023-04-03T09:36:53.695Z,98.47
2023-04-03T09:38:11.679Z,98.19
2023-04-03T09:39:17.295Z,98.12
2023-04-03T09:40:29.127Z,99.05
2023-04-03T09:41:31.138Z,99.72
2023-04-03T09:42:33.684Z,99.80
2023-04-03T09:43:38.193Z,99.76
2023-04-03T09:44:40.427Z,100.00
2023-04-03T09:45:44.029Z,99.73
2023-04-03T09:46:46.267Z,99.56
2023-04-03T09:47:48.457Z,99.33
2023-04-03T09:49:07.519Z,99.76
2023-04-03T09:50:20.632Z,99.74
2023-04-03T09:51:28.178Z,99.67
2023-04-03T09:52:30.311Z,99.81
2023-04-03T09:53:38.606Z,99.60
2023-04-03T09:54:40.531Z,99.84
2023-04-03T09:55:44.753Z,100.00
2023-04-03T09:56:52.226Z,100.00
2023-04-03T09:58:00.959Z,100.00
2023-04-03T09:59:06.729Z,100.00
2023-04-03T10:01:37.813Z,100.00
2023-04-03T10:02:42.144Z,100.00
2023-04-03T10:03:44.183Z,100.00
2023-04-03T10:04:48.796Z,100.00
2023-04-03T10:05:49.916Z,100.00
2023-04-03T10:06:55.123Z,100.00
2023-04-03T10:08:19.815Z,100.00
2023-04-03T10:09:28.896Z,100.00
2023-04-03T10:10:30.939Z,100.00
2023-04-03T10:11:33.037Z,100.00
2023-04-03T10:12:34.982Z,100.00
2023-04-03T10:13:57.328Z,100.00
2023-04-03T10:15:01.450Z,100.00
2023-04-03T10:16:08.049Z,100.00
2023-04-03T10:17:31.763Z,100.00
2023-04-03T10:18:37.547Z,100.00
2023-04-03T10:19:58.170Z,100.00
2023-04-03T10:21:09.621Z,100.00
2023-04-03T10:22:23.608Z,100.00
2023-04-03T10:24:59.421Z,100.00
2023-04-03T10:26:22.132Z,100.00
2023-04-03T10:27:39.479Z,100.00
2023-04-03T10:29:17.366Z,100.00
2023-04-03T10:30:28.700Z,100.00
2023-04-03T10:31:52.390Z,100.00
2023-04-03T10:33:06.751Z,100.00
2023-04-03T10:34:27.673Z,100.00
2023-04-03T10:35:42.327Z,100.00
2023-04-03T10:36:48.142Z,100.00
2023-04-03T10:38:10.596Z,100.00
2023-04-03T10:39:46.282Z,100.00
2023-04-03T10:41:05.245Z,100.00
2023-04-03T10:42:19.959Z,100.00
2023-04-03T10:43:35.849Z,100.00
2023-04-03T10:44:56.734Z,100.00
2023-04-03T10:46:09.072Z,100.00
2023-04-03T10:47:20.915Z,100.00
2023-04-03T10:48:32.818Z,100.00
2023-04-03T10:51:21.571Z,100.00
2023-04-03T10:52:33.164Z,100.00
2023-04-03T10:53:49.767Z,100.00
2023-04-03T10:55:28.607Z,100.00
2023-04-03T10:57:08.460Z,100.00
2023-04-03T10:58:01.479Z,100.00
2023-04-03T10:59:28.498Z,100.00
2023-04-03T11:00:35.250Z,100.00
2023-04-03T11:01:41.145Z,100.00
2023-04-03T11:02:47.036Z,100.00
2023-04-03T11:03:59.848Z,100.00
2023-04-03T11:05:05.907Z,100.00
2023-04-03T11:06:12.351Z,100.00
2023-04-03T11:07:20.906Z,100.00
2023-04-03T11:08:41.954Z,100.00
2023-04-03T11:09:47.372Z,100.00
2023-04-03T11:10:52.320Z,100.00
2023-04-03T11:11:58.120Z,99.77
2023-04-03T11:13:04.166Z,99.81
2023-04-03T11:14:31.665Z,99.83
2023-04-03T11:15:34.790Z,99.69
2023-04-03T11:16:50.891Z,100.00
2023-04-03T11:17:50.985Z,100.00
2023-04-03T11:18:56.762Z,99.93
2023-04-03T11:20:08.590Z,99.93
2023-04-03T11:21:23.806Z,99.20
2023-04-03T11:22:33.229Z,99.20
2023-04-03T11:23:49.088Z,99.12
2023-04-03T11:24:46.262Z,99.56
2023-04-03T11:25:52.024Z,100.00
2023-04-03T11:26:56.539Z,100.00
2023-04-03T11:28:05.239Z,100.00
2023-04-03T11:29:12.474Z,100.00
2023-04-03T11:30:23.023Z,100.00
2023-04-03T11:31:28.919Z,100.00
2023-04-03T11:32:46.365Z,100.00
2023-04-03T11:34:10.765Z,100.00
2023-04-03T11:35:13.488Z,100.00
2023-04-03T11:36:34.627Z,100.00
2023-04-03T11:37:40.494Z,100.00
2023-04-03T11:38:46.121Z,100.00
2023-04-03T11:41:03.306Z,100.00
2023-04-03T11:42:27.372Z,100.00
2023-04-03T11:43:32.262Z,100.00
2023-04-03T11:44:38.312Z,100.00
2023-04-03T11:45:53.236Z,100.00
2023-04-03T11:46:58.534Z,99.77
2023-04-03T11:48:20.783Z,100.00
2023-04-03T11:49:48.799Z,100.00
2023-04-03T11:50:51.484Z,100.00
2023-04-03T11:51:53.531Z,100.00
2023-04-03T11:53:01.402Z,100.00
2023-04-03T11:54:12.922Z,99.41
2023-04-03T11:55:24.579Z,99.03
2023-04-03T11:56:29.772Z,99.29
2023-04-03T11:57:52.377Z,99.92
2023-04-03T11:59:13.509Z,100.00
2023-04-03T12:00:54.544Z,99.91
2023-04-03T12:01:58.391Z,100.00
2023-04-03T12:03:00.662Z,100.00
2023-04-03T12:04:09.862Z,100.00
2023-04-03T12:05:27.494Z,100.00
2023-04-03T12:06:36.424Z,100.00
2023-04-03T12:07:38.375Z,100.00
2023-04-03T12:08:43.994Z,100.00
2023-04-03T12:09:49.655Z,100.00
2023-04-03T12:10:58.267Z,100.00
2023-04-03T12:12:03.254Z,100.00
2023-04-03T12:13:15.178Z,100.00
2023-04-03T12:14:18.379Z,100.00
2023-04-03T12:15:27.024Z,100.00
2023-04-03T12:16:42.010Z,100.00
2023-04-03T12:17:44.003Z,100.00
2023-04-03T12:18:55.354Z,100.00
2023-04-03T12:19:57.254Z,100.00
2023-04-03T12:20:59.560Z,100.00
2023-04-03T12:22:05.365Z,100.00
2023-04-03T12:23:10.558Z,100.00
2023-04-03T12:24:19.310Z,100.00
2023-04-03T12:25:42.047Z,100.00
2023-04-03T12:26:53.434Z,100.00
2023-04-03T12:27:55.382Z,100.00
2023-04-03T12:28:57.333Z,100.00
2023-04-03T12:30:09.200Z,100.00
2023-04-03T12:31:12.744Z,100.00
2023-04-03T12:32:33.502Z,100.00
2023-04-03T12:33:39.381Z,100.00
2023-04-03T12:35:12.953Z,100.00
2023-04-03T12:36:30.761Z,100.00
2023-04-03T12:37:39.444Z,100.00
2023-04-03T12:39:17.356Z,100.00
2023-04-03T12:40:35.384Z,100.00
2023-04-03T12:41:56.332Z,100.00
2023-04-03T12:43:23.213Z,100.00
2023-04-03T12:44:38.252Z,100.00
2023-04-03T12:45:46.539Z,100.00
2023-04-03T12:46:51.406Z,100.00
2023-04-03T12:47:55.586Z,100.00
2023-04-03T12:48:59.399Z,100.00
2023-04-03T12:50:03.803Z,100.00
2023-04-03T12:51:06.693Z,100.00
2023-04-03T12:52:29.263Z,100.00
2023-04-03T12:53:37.724Z,100.00
2023-04-03T12:54:41.260Z,100.00
2023-04-03T12:55:43.602Z,100.00
2023-04-03T12:56:46.205Z,100.00
2023-04-03T12:57:48.740Z,100.00
2023-04-03T12:58:53.543Z,100.00
2023-04-03T12:59:56.110Z,100.00
2023-04-03T13:01:04.865Z,100.00
2023-04-03T13:02:22.565Z,100.00
2023-04-03T13:03:26.275Z,100.00
2023-04-03T13:04:31.813Z,100.00
2023-04-03T13:05:36.955Z,100.00
2023-04-03T13:06:42.685Z,100.00
2023-04-03T13:07:50.338Z,100.00
2023-04-03T13:08:55.378Z,100.00
2023-04-03T13:10:15.844Z,100.00
2023-04-03T13:11:19.952Z,100.00
2023-04-03T13:12:21.874Z,100.00
2023-04-03T13:13:23.949Z,100.00
2023-04-03T13:14:27.760Z,100.00
2023-04-03T13:15:32.928Z,100.00
2023-04-03T13:16:35.191Z,100.00
2023-04-03T13:17:39.950Z,100.00
2023-04-03T13:18:42.098Z,100.00
2023-04-03T13:19:45.677Z,100.00
2023-04-03T13:20:49.272Z,100.00
2023-04-03T13:21:54.953Z,100.00
2023-04-03T13:23:03.558Z,100.00
2023-04-03T13:24:14.943Z,100.00
2023-04-03T13:25:13.576Z,100.00
2023-04-03T13:26:18.727Z,100.00
2023-04-03T13:27:21.377Z,100.00
2023-04-03T13:28:24.921Z,100.00
2023-04-03T13:30:56.629Z,100.00
2023-04-03T13:32:01.085Z,100.00
2023-04-03T13:33:06.654Z,100.00
2023-04-03T13:34:18.183Z,100.00
2023-04-03T13:35:31.178Z,100.00
2023-04-03T13:36:39.243Z,100.00
2023-04-03T13:37:45.004Z,100.00
2023-04-03T13:38:48.877Z,100.00
2023-04-03T13:41:28.868Z,100.00
2023-04-03T13:42:33.526Z,100.00
2023-04-03T13:43:37.588Z,100.00
2023-04-03T13:44:39.730Z,100.00
2023-04-03T13:45:45.555Z,100.00
2023-04-03T13:46:53.882Z,100.00
2023-04-03T13:48:22.046Z,100.00
2023-04-03T13:49:35.024Z,100.00